createdAt,value
2023-03-18T00:00:31.138Z,5.47
2023-03-18T00:02:58.483Z,5.63
2023-03-18T00:05:25.693Z,5.82
2023-03-18T00:07:52.668Z,8.73
2023-03-18T00:10:20.508Z,8.23
2023-03-18T00:12:47.894Z,7.82
2023-03-18T00:15:16.286Z,7.25
2023-03-18T00:17:43.461Z,7.03
2023-03-18T00:20:12.963Z,4.95
2023-03-18T00:22:42.113Z,5.87
2023-03-18T00:25:12.140Z,6.60
2023-03-18T00:27:39.888Z,7.65
2023-03-18T00:30:08.582Z,6.43
2023-03-18T00:32:36.338Z,8.50
2023-03-18T00:35:03.993Z,6.10
2023-03-18T00:37:33.606Z,7.82
2023-03-18T00:40:10.000Z,6.57
2023-03-18T00:42:47.283Z,8.30
2023-03-18T00:45:17.092Z,5.85
2023-03-18T00:47:45.212Z,6.07
2023-03-18T00:50:12.729Z,6.03
2023-03-18T00:52:39.601Z,11.25
2023-03-18T00:55:08.309Z,8.55
2023-03-18T00:57:35.549Z,12.03
2023-03-18T01:00:04.278Z,11.50
2023-03-18T01:02:31.190Z,7.53
2023-03-18T01:04:58.084Z,8.90
2023-03-18T01:07:25.398Z,7.13
2023-03-18T01:09:52.710Z,5.75
2023-03-18T01:12:19.617Z,7.65
2023-03-18T01:14:46.996Z,9.40
2023-03-18T01:17:14.124Z,7.43
2023-03-18T01:19:41.082Z,9.32
2023-03-18T01:22:08.231Z,8.97
2023-03-18T01:24:36.530Z,8.52
2023-03-18T01:27:04.040Z,9.18
2023-03-18T01:29:30.864Z,8.60
2023-03-18T01:31:57.795Z,8.70
2023-03-18T01:34:25.098Z,10.07
2023-03-18T01:36:52.490Z,10.73
2023-03-18T01:39:19.556Z,11.43
2023-03-18T01:41:46.681Z,9.05
2023-03-18T01:44:22.630Z,9.48
2023-03-18T01:46:51.880Z,9.37
2023-03-18T01:49:25.911Z,11.95
2023-03-18T01:52:20.986Z,10.13
2023-03-18T01:55:05.978Z,11.00
2023-03-18T01:57:35.008Z,8.53
2023-03-18T02:00:04.508Z,8.05
2023-03-18T02:02:33.352Z,7.65
2023-03-18T02:05:06.629Z,9.80
2023-03-18T02:07:36.598Z,11.30
2023-03-18T02:10:16.262Z,9.27
2023-03-18T02:12:50.792Z,9.02
2023-03-18T02:15:22.545Z,8.30
2023-03-18T02:18:05.218Z,6.87
2023-03-18T02:21:07.253Z,8.85
2023-03-18T02:24:43.885Z,9.23
2023-03-18T02:27:20.735Z,8.75
2023-03-18T02:29:49.620Z,10.27
2023-03-18T02:32:18.170Z,8.77
2023-03-18T02:34:45.603Z,10.77
2023-03-18T02:37:12.832Z,10.47
2023-03-18T02:39:39.746Z,10.63
2023-03-18T02:42:06.836Z,11.70
2023-03-18T02:44:40.464Z,10.48
2023-03-18T02:47:14.285Z,7.70
2023-03-18T02:49:41.465Z,11.05
2023-03-18T02:52:08.773Z,11.52
2023-03-18T02:54:35.564Z,10.50
2023-03-18T02:57:03.148Z,10.13
2023-03-18T02:59:32.375Z,9.63
2023-03-18T03:01:59.466Z,11.57
2023-03-18T03:04:27.806Z,7.50
2023-03-18T03:06:56.820Z,8.90
2023-03-18T03:09:23.725Z,9.13
2023-03-18T03:11:51.495Z,11.87
2023-03-18T03:14:18.402Z,11.82
2023-03-18T03:16:45.235Z,11.63
2023-03-18T03:19:12.118Z,9.73
2023-03-18T03:21:38.976Z,9.20
2023-03-18T03:24:07.683Z,8.90
2023-03-18T03:26:35.015Z,6.90
2023-03-18T03:29:04.433Z,11.87
2023-03-18T03:31:31.726Z,8.40
2023-03-18T03:33:59.196Z,9.10
2023-03-18T03:36:26.514Z,9.18
2023-03-18T03:38:53.946Z,8.68
2023-03-18T03:41:21.131Z,8.43
2023-03-18T03:43:47.917Z,9.83
2023-03-18T03:46:15.360Z,9.85
2023-03-18T03:48:42.463Z,11.07
2023-03-18T03:51:09.319Z,8.50
2023-03-18T03:53:36.591Z,8.93
2023-03-18T03:56:04.318Z,10.43
2023-03-18T03:58:31.349Z,10.03
2023-03-18T04:00:58.369Z,7.63
2023-03-18T04:03:25.591Z,9.27
2023-03-18T04:05:52.728Z,7.70
2023-03-18T04:08:19.874Z,12.82
2023-03-18T04:10:46.838Z,10.80
2023-03-18T04:13:13.694Z,9.33
2023-03-18T04:15:40.557Z,10.57
2023-03-18T04:18:09.114Z,13.00
2023-03-18T04:20:38.749Z,10.87
2023-03-18T04:23:07.395Z,10.97
2023-03-18T04:25:35.290Z,10.90
2023-03-18T04:28:03.128Z,11.80
2023-03-18T04:30:30.790Z,9.80
2023-03-18T04:32:59.662Z,9.03
2023-03-18T04:35:27.012Z,12.50
2023-03-18T04:37:54.663Z,8.63
2023-03-18T04:40:21.857Z,7.90
2023-03-18T04:42:49.014Z,8.80
2023-03-18T04:45:17.554Z,8.83
2023-03-18T04:47:45.488Z,7.63
2023-03-18T04:50:14.529Z,11.27
2023-03-18T04:52:43.688Z,12.60
2023-03-18T04:55:11.832Z,8.63
2023-03-18T04:57:38.899Z,9.30
2023-03-18T05:00:11.636Z,10.10
2023-03-18T05:02:39.867Z,10.87
2023-03-18T05:05:08.154Z,14.37
2023-03-18T05:07:34.996Z,10.27
2023-03-18T05:10:01.974Z,15.13
2023-03-18T05:12:28.762Z,12.87
2023-03-18T05:14:55.730Z,8.40
2023-03-18T05:17:25.473Z,12.23
2023-03-18T05:19:52.711Z,10.20
2023-03-18T05:22:22.080Z,9.37
2023-03-18T05:24:49.588Z,9.77
2023-03-18T05:27:18.984Z,17.97
2023-03-18T05:29:46.277Z,13.67
2023-03-18T05:32:14.887Z,11.40
2023-03-18T05:34:42.915Z,13.30
2023-03-18T05:37:14.067Z,12.07
2023-03-18T05:39:44.337Z,9.70
2023-03-18T05:42:12.565Z,14.03
2023-03-18T05:44:40.377Z,15.40
2023-03-18T05:47:08.466Z,12.33
2023-03-18T05:49:36.127Z,13.30
2023-03-18T05:52:03.030Z,8.43
2023-03-18T05:54:30.104Z,12.27
2023-03-18T05:56:58.072Z,10.93
2023-03-18T05:59:25.177Z,10.23
2023-03-18T06:01:53.865Z,17.03
2023-03-18T06:04:20.878Z,14.70
2023-03-18T06:06:48.259Z,14.77
2023-03-18T06:09:16.518Z,10.47
2023-03-18T06:11:44.556Z,9.60
2023-03-18T06:14:12.814Z,10.67
2023-03-18T06:16:41.670Z,13.57
2023-03-18T06:19:10.781Z,10.73
2023-03-18T06:21:39.556Z,9.23
2023-03-18T06:24:08.233Z,9.20
2023-03-18T06:26:35.450Z,11.40
2023-03-18T06:29:03.979Z,10.87
2023-03-18T06:31:31.252Z,11.30
2023-03-18T06:34:00.874Z,13.63
2023-03-18T06:36:28.139Z,17.43
2023-03-18T06:38:55.914Z,11.65
2023-03-18T06:41:25.521Z,12.95
2023-03-18T06:43:53.672Z,10.00
2023-03-18T06:46:20.456Z,10.63
2023-03-18T06:48:49.290Z,12.10
2023-03-18T06:51:16.242Z,13.60
2023-03-18T06:53:42.992Z,10.32
2023-03-18T06:56:10.034Z,10.68
2023-03-18T06:58:37.016Z,10.40
2023-03-18T07:01:04.096Z,9.35
2023-03-18T07:03:30.981Z,6.07
2023-03-18T07:05:57.952Z,9.63
2023-03-18T07:08:25.002Z,9.07
2023-03-18T07:10:54.764Z,10.25
2023-03-18T07:13:23.122Z,7.95
2023-03-18T07:15:50.009Z,6.55
2023-03-18T07:18:17.241Z,13.77
2023-03-18T07:20:44.114Z,8.80
2023-03-18T07:23:11.371Z,9.48
2023-03-18T07:25:38.293Z,11.88
2023-03-18T07:28:05.759Z,6.85
2023-03-18T07:30:33.933Z,9.10
2023-03-18T07:33:01.123Z,7.15
2023-03-18T07:35:28.792Z,7.72
2023-03-18T07:37:56.735Z,7.45
2023-03-18T07:40:24.464Z,6.40
2023-03-18T07:42:54.168Z,5.32
2023-03-18T07:45:21.128Z,7.20
2023-03-18T07:47:48.180Z,6.95
2023-03-18T07:50:15.367Z,7.97
2023-03-18T07:52:42.898Z,8.68
2023-03-18T07:55:10.579Z,6.53
2023-03-18T07:57:38.091Z,6.63
2023-03-18T08:00:07.031Z,7.78
2023-03-18T08:02:34.779Z,7.78
2023-03-18T08:05:02.235Z,7.80
2023-03-18T08:07:29.699Z,6.88
2023-03-18T08:09:56.501Z,5.72
2023-03-18T08:12:23.513Z,4.82
2023-03-18T08:14:50.326Z,6.65
2023-03-18T08:17:17.753Z,6.05
2023-03-18T08:19:44.805Z,7.25
2023-03-18T08:22:12.141Z,4.78
2023-03-18T08:24:39.009Z,5.18
2023-03-18T08:27:06.525Z,7.72
2023-03-18T08:29:33.630Z,5.07
2023-03-18T08:32:00.866Z,7.72
2023-03-18T08:34:28.120Z,5.10
2023-03-18T08:36:54.991Z,7.60
2023-03-18T08:39:22.048Z,7.65
2023-03-18T08:41:49.143Z,6.10
2023-03-18T08:44:16.437Z,4.97
2023-03-18T08:46:43.314Z,5.50
2023-03-18T08:49:11.003Z,6.72
2023-03-18T08:51:38.469Z,6.57
2023-03-18T08:54:05.902Z,7.53
2023-03-18T08:56:34.227Z,4.28
2023-03-18T08:59:01.405Z,6.47
2023-03-18T09:01:28.267Z,9.27
2023-03-18T09:03:57.787Z,7.00
2023-03-18T09:06:24.631Z,6.35
2023-03-18T09:08:52.088Z,5.13
2023-03-18T09:11:19.030Z,6.93
2023-03-18T09:13:49.059Z,6.13
2023-03-18T09:16:16.143Z,6.20
2023-03-18T09:18:45.257Z,4.53
2023-03-18T09:21:12.874Z,4.50
2023-03-18T09:23:39.898Z,6.68
2023-03-18T09:26:06.689Z,6.28
2023-03-18T09:28:33.516Z,4.88
2023-03-18T09:31:00.374Z,5.47
2023-03-18T09:33:27.273Z,7.45
2023-03-18T09:35:54.721Z,5.00
2023-03-18T09:38:22.459Z,3.90
2023-03-18T09:41:13.661Z,5.28
2023-03-18T09:44:02.978Z,4.78
2023-03-18T09:46:46.335Z,4.18
2023-03-18T09:49:22.259Z,4.18
2023-03-18T09:52:19.374Z,4.50
2023-03-18T09:54:57.638Z,5.72
2023-03-18T09:57:30.534Z,5.47
2023-03-18T10:00:32.152Z,5.00
2023-03-18T10:03:25.802Z,5.20
2023-03-18T10:06:01.159Z,4.05
2023-03-18T10:09:28.491Z,6.78
2023-03-18T10:12:15.966Z,3.13
2023-03-18T10:14:52.425Z,3.53
2023-03-18T10:17:37.358Z,4.03
2023-03-18T10:20:26.064Z,3.78
2023-03-18T10:23:10.545Z,4.65
2023-03-18T10:25:55.842Z,4.10
2023-03-18T10:28:58.621Z,4.60
2023-03-18T10:31:50.845Z,4.03
2023-03-18T10:34:23.995Z,4.15
2023-03-18T10:37:20.148Z,2.78
2023-03-18T10:39:48.699Z,2.75
2023-03-18T10:42:27.749Z,3.15
2023-03-18T10:45:08.765Z,5.13
2023-03-18T10:47:44.845Z,5.18
2023-03-18T10:50:20.719Z,4.10
2023-03-18T10:53:27.122Z,3.25
2023-03-18T10:56:04.850Z,2.88
2023-03-18T10:58:32.248Z,3.97
2023-03-18T11:00:59.664Z,3.45
2023-03-18T11:03:30.560Z,3.53
2023-03-18T11:06:03.211Z,3.33
2023-03-18T11:08:40.932Z,3.28
2023-03-18T11:11:34.610Z,6.53
2023-03-18T11:14:05.188Z,2.78
2023-03-18T11:16:50.198Z,3.60
2023-03-18T11:19:41.681Z,5.10
2023-03-18T11:22:20.893Z,3.70
2023-03-18T11:25:06.103Z,3.00
2023-03-18T11:27:43.825Z,6.03
2023-03-18T11:30:44.776Z,4.38
2023-03-18T11:33:11.923Z,5.13
2023-03-18T11:35:57.570Z,4.60
2023-03-18T11:38:37.079Z,5.07
2023-03-18T11:41:27.684Z,2.50
2023-03-18T11:44:02.074Z,3.08
2023-03-18T11:47:04.402Z,3.45
2023-03-18T11:49:31.845Z,2.67
2023-03-18T11:52:11.021Z,2.03
2023-03-18T11:55:15.707Z,3.97
2023-03-18T11:58:34.549Z,3.47
2023-03-18T12:01:10.838Z,2.65
2023-03-18T12:04:33.876Z,2.45
2023-03-18T12:07:55.319Z,1.48
2023-03-18T12:10:34.275Z,1.75
2023-03-18T12:13:37.459Z,3.28
2023-03-18T12:16:51.853Z,4.38
2023-03-18T12:20:18.707Z,2.97
2023-03-18T12:23:07.024Z,2.38
2023-03-18T12:26:09.546Z,3.63
2023-03-18T12:29:07.485Z,2.67
2023-03-18T12:32:06.535Z,3.67
2023-03-18T12:34:49.150Z,2.70
2023-03-18T12:37:44.205Z,1.67
2023-03-18T12:40:47.217Z,1.98
2023-03-18T12:44:01.640Z,3.20
2023-03-18T12:46:31.813Z,1.38
2023-03-18T12:49:33.889Z,2.67
2023-03-18T12:52:09.876Z,2.28
2023-03-18T12:55:12.978Z,1.60
2023-03-18T12:58:00.329Z,3.22
2023-03-18T13:00:37.465Z,3.08
2023-03-18T13:03:23.930Z,1.02
2023-03-18T13:05:56.965Z,3.20
2023-03-18T13:08:44.889Z,2.13
2023-03-18T13:11:39.486Z,2.35
2023-03-18T13:14:11.576Z,3.33
2023-03-18T13:16:39.744Z,3.42
2023-03-18T13:19:09.154Z,2.05
2023-03-18T13:21:44.652Z,2.78
2023-03-18T13:24:46.269Z,1.85
2023-03-18T13:27:46.484Z,1.40
2023-03-18T13:30:24.698Z,1.48
2023-03-18T13:33:42.723Z,1.58
2023-03-18T13:36:28.658Z,1.08
2023-03-18T13:39:46.130Z,1.33
2023-03-18T13:42:28.636Z,2.38
2023-03-18T13:45:15.613Z,2.53
2023-03-18T13:47:44.337Z,2.10
2023-03-18T13:50:20.372Z,2.78
2023-03-18T13:52:53.117Z,1.90
2023-03-18T13:55:41.194Z,2.92
2023-03-18T13:58:19.486Z,3.25
2023-03-18T14:01:24.119Z,4.28
2023-03-18T14:03:51.103Z,2.60
2023-03-18T14:06:47.503Z,2.95
2023-03-18T14:09:34.539Z,3.03
2023-03-18T14:12:38.222Z,1.85
2023-03-18T14:15:12.960Z,4.03
2023-03-18T14:17:48.432Z,2.28
2023-03-18T14:20:15.103Z,3.22
2023-03-18T14:22:44.639Z,2.65
2023-03-18T14:25:14.483Z,6.93
2023-03-18T14:27:47.205Z,3.33
2023-03-18T14:30:32.377Z,4.35
2023-03-18T14:33:03.080Z,1.73
2023-03-18T14:35:53.346Z,3.67
2023-03-18T14:38:22.218Z,2.88
2023-03-18T14:40:54.318Z,4.65
2023-03-18T14:43:43.409Z,4.20
2023-03-18T14:46:31.398Z,2.90
2023-03-18T14:48:58.399Z,3.53
2023-03-18T14:51:31.634Z,7.30
2023-03-18T14:54:21.076Z,2.83
2023-03-18T14:56:55.409Z,3.00
2023-03-18T14:59:25.651Z,3.33
2023-03-18T15:01:53.993Z,3.30
2023-03-18T15:04:27.282Z,4.88
2023-03-18T15:07:00.340Z,2.00
2023-03-18T15:09:33.648Z,3.65
2023-03-18T15:12:16.142Z,1.95
2023-03-18T15:14:42.980Z,3.60
2023-03-18T15:17:16.867Z,4.18
2023-03-18T15:19:46.376Z,3.67
2023-03-18T15:22:26.173Z,3.70
2023-03-18T15:25:04.095Z,4.53
2023-03-18T15:27:34.997Z,5.95
2023-03-18T15:30:07.772Z,3.22
2023-03-18T15:32:47.667Z,6.32
2023-03-18T15:35:24.568Z,3.15
2023-03-18T15:38:09.031Z,4.28
2023-03-18T15:40:50.535Z,3.03
2023-03-18T15:43:30.339Z,4.78
2023-03-18T15:46:01.198Z,3.63
2023-03-18T15:48:43.944Z,3.05
2023-03-18T15:51:45.042Z,3.97
2023-03-18T15:54:38.249Z,3.22
2023-03-18T15:57:20.699Z,5.85
2023-03-18T15:59:48.031Z,5.95
2023-03-18T16:02:18.507Z,3.33
2023-03-18T16:04:46.574Z,5.25
2023-03-18T16:07:19.095Z,2.90
2023-03-18T16:09:46.149Z,4.55
2023-03-18T16:12:23.886Z,4.63
2023-03-18T16:14:52.426Z,2.50
2023-03-18T16:17:22.030Z,4.72
2023-03-18T16:19:53.806Z,2.13
2023-03-18T16:22:20.696Z,4.45
2023-03-18T16:24:47.702Z,4.85
2023-03-18T16:27:41.390Z,4.45
2023-03-18T16:30:20.122Z,3.40
2023-03-18T16:32:47.299Z,4.95
2023-03-18T16:35:21.501Z,2.50
2023-03-18T16:37:49.489Z,2.38
2023-03-18T16:40:20.436Z,4.50
2023-03-18T16:42:48.030Z,4.47
2023-03-18T16:45:18.260Z,3.65
2023-03-18T16:47:48.569Z,2.28
2023-03-18T16:50:19.655Z,2.55
2023-03-18T16:52:47.479Z,3.88
2023-03-18T16:55:17.747Z,2.55
2023-03-18T16:57:54.320Z,3.13
2023-03-18T17:00:34.239Z,4.20
2023-03-18T17:03:01.867Z,4.97
2023-03-18T17:05:29.206Z,3.65
2023-03-18T17:07:56.247Z,4.82
2023-03-18T17:10:27.034Z,2.25
2023-03-18T17:13:23.015Z,3.70
2023-03-18T17:15:51.486Z,4.15
2023-03-18T17:18:22.390Z,4.45
2023-03-18T17:20:50.984Z,3.70
2023-03-18T17:23:20.550Z,3.67
2023-03-18T17:25:54.899Z,3.15
2023-03-18T17:28:37.917Z,2.85
2023-03-18T17:31:05.617Z,6.72
2023-03-18T17:33:37.066Z,3.58
2023-03-18T17:36:08.726Z,4.07
2023-03-18T17:38:36.332Z,5.45
2023-03-18T17:41:13.865Z,2.40
2023-03-18T17:43:40.656Z,4.82
2023-03-18T17:46:07.933Z,4.53
2023-03-18T17:48:37.728Z,5.30
2023-03-18T17:51:16.626Z,2.88
2023-03-18T17:53:49.954Z,5.22
2023-03-18T17:56:20.222Z,3.97
2023-03-18T17:58:50.497Z,4.50
2023-03-18T18:01:20.504Z,3.58
2023-03-18T18:03:47.811Z,3.65
2023-03-18T18:06:25.355Z,4.85
2023-03-18T18:08:52.259Z,7.15
2023-03-18T18:11:30.736Z,9.60
2023-03-18T18:14:09.947Z,11.75
2023-03-18T18:16:37.517Z,10.48
2023-03-18T18:19:04.346Z,10.23
2023-03-18T18:21:31.360Z,8.23
2023-03-18T18:23:58.314Z,10.20
2023-03-18T18:26:25.187Z,12.18
2023-03-18T18:28:53.315Z,14.35
2023-03-18T18:31:23.722Z,10.68
2023-03-18T18:33:51.054Z,10.82
2023-03-18T18:36:18.297Z,14.25
2023-03-18T18:38:45.496Z,13.70
2023-03-18T18:41:12.668Z,5.28
2023-03-18T18:43:39.538Z,16.25
2023-03-18T18:46:17.334Z,18.02
2023-03-18T18:48:48.703Z,23.33
2023-03-18T18:51:19.835Z,18.80
2023-03-18T18:53:47.572Z,12.40
2023-03-18T18:56:37.774Z,12.40
2023-03-18T18:59:26.919Z,9.75
2023-03-18T19:01:55.486Z,8.55
2023-03-18T19:04:23.504Z,7.03
2023-03-18T19:06:52.380Z,15.48
2023-03-18T19:09:24.348Z,11.10
2023-03-18T19:11:53.289Z,15.35
2023-03-18T19:14:29.110Z,17.75
2023-03-18T19:16:58.627Z,17.55
2023-03-18T19:19:34.409Z,20.42
2023-03-18T19:22:02.884Z,23.38
2023-03-18T19:24:35.943Z,21.33
2023-03-18T19:27:11.662Z,17.67
2023-03-18T19:29:38.488Z,17.70
2023-03-18T19:32:07.111Z,14.45
2023-03-18T19:34:35.309Z,16.88
2023-03-18T19:37:05.889Z,18.45
2023-03-18T19:39:32.692Z,14.73
2023-03-18T19:41:59.444Z,12.85
2023-03-18T19:44:27.244Z,17.58
2023-03-18T19:46:58.455Z,20.75
2023-03-18T19:49:39.366Z,16.00
2023-03-18T19:52:19.241Z,17.27
2023-03-18T19:54:47.553Z,20.98
2023-03-18T19:57:27.738Z,19.08
2023-03-18T19:59:58.203Z,16.33
2023-03-18T20:02:31.940Z,17.88
2023-03-18T20:05:14.218Z,23.00
2023-03-18T20:07:41.009Z,24.42
2023-03-18T20:10:11.171Z,16.55
2023-03-18T20:12:49.644Z,21.60
2023-03-18T20:15:21.704Z,17.48
2023-03-18T20:17:51.366Z,11.85
2023-03-18T20:20:26.355Z,26.10
2023-03-18T20:23:06.303Z,16.02
2023-03-18T20:25:42.916Z,15.77
2023-03-18T20:28:20.311Z,19.63
2023-03-18T20:30:52.232Z,15.17
2023-03-18T20:33:22.098Z,15.30
2023-03-18T20:35:52.318Z,22.45
2023-03-18T20:38:25.509Z,26.25
2023-03-18T20:40:52.528Z,24.67
2023-03-18T20:43:22.756Z,34.25
2023-03-18T20:45:53.132Z,40.20
2023-03-18T20:48:22.270Z,39.53
2023-03-18T20:50:50.891Z,32.40
2023-03-18T20:53:23.800Z,27.80
2023-03-18T20:55:51.788Z,39.50
2023-03-18T20:58:28.880Z,31.20
2023-03-18T21:00:55.865Z,25.63
2023-03-18T21:03:29.959Z,18.45
2023-03-18T21:05:59.364Z,27.97
2023-03-18T21:08:28.053Z,27.83
2023-03-18T21:10:59.032Z,27.52
2023-03-18T21:13:35.998Z,22.10
2023-03-18T21:16:05.988Z,18.63
2023-03-18T21:18:35.525Z,20.07
2023-03-18T21:21:02.641Z,19.83
2023-03-18T21:23:33.974Z,23.83
2023-03-18T21:26:01.286Z,22.35
2023-03-18T21:28:30.078Z,21.83
2023-03-18T21:30:58.572Z,25.97
2023-03-18T21:33:30.045Z,26.43
2023-03-18T21:35:57.943Z,23.93
2023-03-18T21:38:28.019Z,24.73
2023-03-18T21:40:56.579Z,18.90
2023-03-18T21:43:26.456Z,17.53
2023-03-18T21:45:54.116Z,17.27
2023-03-18T21:48:21.654Z,17.20
2023-03-18T21:50:48.939Z,14.17
2023-03-18T21:53:19.273Z,17.97
2023-03-18T21:55:46.639Z,16.00
2023-03-18T21:58:20.871Z,16.00
2023-03-18T22:00:57.842Z,17.67
2023-03-18T22:03:28.519Z,15.33
2023-03-18T22:05:56.486Z,14.33
2023-03-18T22:08:24.092Z,15.33
2023-03-18T22:10:52.071Z,13.00
2023-03-18T22:13:22.395Z,11.20
2023-03-18T22:15:54.332Z,12.77
2023-03-18T22:18:23.190Z,11.87
2023-03-18T22:20:51.543Z,17.30
2023-03-18T22:23:22.484Z,14.33
2023-03-18T22:25:54.801Z,12.10
2023-03-18T22:28:23.684Z,12.57
2023-03-18T22:30:52.755Z,14.87
2023-03-18T22:33:34.072Z,17.33
2023-03-18T22:36:01.229Z,13.77
2023-03-18T22:38:29.464Z,15.30
2023-03-18T22:40:57.669Z,19.70
2023-03-18T22:43:36.969Z,22.63
2023-03-18T22:46:07.690Z,17.97
2023-03-18T22:48:34.929Z,17.50
2023-03-18T22:51:03.145Z,12.73
2023-03-18T22:53:40.538Z,12.27
2023-03-18T22:56:14.111Z,15.43
2023-03-18T22:58:41.027Z,10.33
2023-03-18T23:01:14.000Z,14.80
2023-03-18T23:03:43.783Z,15.67
2023-03-18T23:06:17.162Z,13.87
2023-03-18T23:08:45.687Z,12.97
2023-03-18T23:11:13.752Z,12.73
2023-03-18T23:13:44.126Z,14.73
2023-03-18T23:16:18.696Z,15.50
2023-03-18T23:18:45.619Z,16.70
2023-03-18T23:21:21.361Z,15.17
2023-03-18T23:23:48.850Z,14.50
2023-03-18T23:26:16.945Z,16.40
2023-03-18T23:28:45.235Z,15.73
2023-03-18T23:31:14.471Z,45.70
2023-03-18T23:33:42.003Z,34.93
2023-03-18T23:36:11.115Z,20.23
2023-03-18T23:38:38.223Z,15.43
2023-03-18T23:41:06.070Z,14.97
2023-03-18T23:43:32.883Z,18.40
2023-03-18T23:45:59.879Z,16.20
2023-03-18T23:48:26.957Z,13.60
2023-03-18T23:50:53.892Z,12.77
2023-03-18T23:53:20.889Z,15.23
2023-03-18T23:55:49.239Z,23.57
2023-03-18T23:58:16.578Z,24.77
